createdAt,value
2018-12-29T00:01:06.033Z,4.97
2018-12-29T00:03:34.662Z,5.23
2018-12-29T00:06:03.058Z,4.33
2018-12-29T00:08:31.413Z,5.70
2018-12-29T00:11:00.097Z,6.07
2018-12-29T00:13:28.431Z,5.60
2018-12-29T00:15:56.784Z,5.63
2018-12-29T00:18:25.434Z,4.43
2018-12-29T00:20:53.859Z,3.83
2018-12-29T00:23:22.209Z,4.37
2018-12-29T00:25:51.142Z,4.63
2018-12-29T00:28:19.541Z,4.03
2018-12-29T00:30:48.157Z,3.80
2018-12-29T00:33:17.032Z,3.80
2018-12-29T00:35:45.489Z,4.23
2018-12-29T00:38:13.794Z,4.00
2018-12-29T00:40:42.778Z,4.43
2018-12-29T00:43:11.138Z,4.63
2018-12-29T00:45:39.467Z,4.47
2018-12-29T00:48:08.387Z,4.13
2018-12-29T00:50:36.714Z,4.20
2018-12-29T00:53:05.121Z,4.50
2018-12-29T00:55:33.988Z,3.93
2018-12-29T00:58:02.477Z,3.83
2018-12-29T01:00:30.799Z,3.87
2018-12-29T01:02:59.256Z,4.33
2018-12-29T01:05:27.784Z,3.90
2018-12-29T01:07:56.094Z,4.20
2018-12-29T01:10:24.846Z,5.13
2018-12-29T01:12:53.297Z,4.70
2018-12-29T01:15:22.021Z,4.93
2018-12-29T01:17:50.757Z,5.00
2018-12-29T01:20:19.058Z,3.17
2018-12-29T01:22:47.498Z,4.73
2018-12-29T01:25:16.198Z,4.47
2018-12-29T01:27:44.719Z,4.87
2018-12-29T01:30:13.053Z,3.93
2018-12-29T01:32:41.782Z,4.50
2018-12-29T01:35:10.080Z,4.47
2018-12-29T01:37:38.391Z,4.17
2018-12-29T01:40:07.207Z,4.50
2018-12-29T01:42:36.003Z,3.37
2018-12-29T01:45:04.580Z,3.70
2018-12-29T01:47:33.430Z,3.57
2018-12-29T01:50:02.081Z,4.27
2018-12-29T01:52:30.511Z,3.20
2018-12-29T01:54:59.332Z,4.47
2018-12-29T01:57:27.651Z,4.20
2018-12-29T01:59:56.016Z,3.57
2018-12-29T02:02:24.721Z,3.77
2018-12-29T02:04:53.762Z,4.13
2018-12-29T02:07:22.090Z,3.90
2018-12-29T02:09:50.825Z,3.20
2018-12-29T02:12:19.326Z,4.53
2018-12-29T02:14:47.704Z,4.20
2018-12-29T02:17:16.570Z,4.33
2018-12-29T02:19:45.057Z,3.37
2018-12-29T02:22:13.600Z,3.40
2018-12-29T02:24:42.932Z,4.40
2018-12-29T02:27:11.656Z,3.90
2018-12-29T02:29:40.301Z,4.40
2018-12-29T02:32:09.151Z,3.67
2018-12-29T02:34:37.792Z,3.47
2018-12-29T02:37:06.107Z,3.33
2018-12-29T02:39:34.612Z,3.63
2018-12-29T02:42:02.954Z,3.17
2018-12-29T02:44:31.468Z,3.07
2018-12-29T02:47:00.483Z,3.07
2018-12-29T02:49:28.851Z,2.63
2018-12-29T02:51:58.099Z,3.20
2018-12-29T02:54:26.833Z,3.60
2018-12-29T02:56:55.189Z,3.20
2018-12-29T02:59:23.536Z,3.47
2018-12-29T03:01:52.137Z,3.30
2018-12-29T03:04:20.459Z,3.10
2018-12-29T03:06:48.804Z,3.00
2018-12-29T03:09:17.723Z,2.90
2018-12-29T03:11:46.065Z,3.23
2018-12-29T03:14:14.626Z,2.57
2018-12-29T03:16:43.335Z,2.77
2018-12-29T03:19:11.985Z,3.17
2018-12-29T03:21:40.314Z,3.07
2018-12-29T03:24:08.910Z,3.00
2018-12-29T03:26:37.570Z,3.27
2018-12-29T03:29:05.860Z,3.10
2018-12-29T03:31:34.964Z,2.87
2018-12-29T03:34:03.338Z,3.17
2018-12-29T03:36:31.657Z,2.57
2018-12-29T03:39:00.253Z,2.40
2018-12-29T03:41:28.669Z,2.97
2018-12-29T03:43:57.221Z,2.53
2018-12-29T03:46:26.152Z,2.70
2018-12-29T03:48:54.500Z,3.13
2018-12-29T03:51:22.833Z,3.00
2018-12-29T03:53:51.841Z,2.90
2018-12-29T03:56:20.185Z,2.97
2018-12-29T03:58:48.726Z,3.10
2018-12-29T04:01:17.211Z,3.37
2018-12-29T04:03:45.718Z,2.97
2018-12-29T04:06:14.032Z,4.00
2018-12-29T04:08:52.915Z,3.80
2018-12-29T04:11:21.459Z,3.20
2018-12-29T04:13:49.803Z,3.47
2018-12-29T04:16:18.504Z,3.13
2018-12-29T04:18:46.799Z,3.93
2018-12-29T04:21:15.364Z,3.70
2018-12-29T04:23:44.103Z,3.67
2018-12-29T04:26:12.728Z,3.40
2018-12-29T04:28:41.090Z,3.37
2018-12-29T04:31:09.851Z,2.60
2018-12-29T04:33:38.359Z,2.93
2018-12-29T04:36:06.876Z,3.07
2018-12-29T04:38:35.450Z,2.90
2018-12-29T04:41:03.727Z,3.30
2018-12-29T04:43:32.085Z,2.77
2018-12-29T04:46:05.223Z,2.90
2018-12-29T04:48:29.106Z,3.67
2018-12-29T04:50:57.431Z,4.37
2018-12-29T04:53:26.016Z,4.27
2018-12-29T04:55:54.796Z,4.37
2018-12-29T04:58:23.202Z,4.37
2018-12-29T05:00:51.818Z,4.00
2018-12-29T05:03:20.531Z,5.00
2018-12-29T05:05:48.831Z,4.20
2018-12-29T05:08:17.519Z,4.33
2018-12-29T05:10:45.874Z,3.60
2018-12-29T05:13:14.237Z,4.43
2018-12-29T05:15:43.090Z,4.70
2018-12-29T05:18:11.446Z,4.20
2018-12-29T05:20:39.736Z,4.53
2018-12-29T05:23:08.546Z,2.97
2018-12-29T05:25:36.883Z,4.50
2018-12-29T05:28:05.235Z,4.90
2018-12-29T05:30:33.982Z,4.57
2018-12-29T05:33:02.773Z,5.43
2018-12-29T05:35:31.074Z,6.10
2018-12-29T05:38:00.343Z,5.73
2018-12-29T05:40:28.681Z,5.07
2018-12-29T05:42:57.333Z,5.23
2018-12-29T05:45:26.059Z,5.77
2018-12-29T05:47:54.342Z,4.77
2018-12-29T05:50:22.713Z,5.43
2018-12-29T05:52:51.380Z,4.23
2018-12-29T05:55:19.702Z,4.77
2018-12-29T05:57:48.539Z,4.90
2018-12-29T06:00:17.135Z,5.90
2018-12-29T06:02:45.457Z,5.23
2018-12-29T06:05:13.914Z,3.83
2018-12-29T06:07:42.718Z,5.00
2018-12-29T06:10:11.126Z,5.20
2018-12-29T06:12:39.429Z,4.97
2018-12-29T06:15:08.158Z,4.47
2018-12-29T06:17:36.533Z,5.53
2018-12-29T06:20:05.096Z,5.00
2018-12-29T06:22:33.907Z,4.63
2018-12-29T06:25:02.466Z,5.27
2018-12-29T06:27:30.766Z,6.20
2018-12-29T06:29:59.654Z,6.27
2018-12-29T06:32:28.077Z,5.40
2018-12-29T06:34:56.777Z,5.90
2018-12-29T06:37:25.706Z,5.93
2018-12-29T06:39:54.003Z,5.47
2018-12-29T06:42:22.695Z,5.30
2018-12-29T06:44:51.313Z,5.17
2018-12-29T06:47:19.642Z,6.83
2018-12-29T06:49:47.959Z,6.33
2018-12-29T06:52:16.433Z,6.37
2018-12-29T06:54:44.901Z,5.27
2018-12-29T06:57:13.485Z,6.07
2018-12-29T06:59:42.499Z,6.23
2018-12-29T07:02:11.022Z,6.13
2018-12-29T07:04:39.318Z,4.90
2018-12-29T07:07:07.922Z,5.10
2018-12-29T07:09:36.674Z,4.83
2018-12-29T07:12:05.089Z,5.53
2018-12-29T07:14:33.679Z,5.60
2018-12-29T07:17:02.148Z,5.97
2018-12-29T07:19:30.773Z,7.27
2018-12-29T07:21:59.434Z,4.67
2018-12-29T07:24:27.708Z,6.27
2018-12-29T07:26:56.005Z,6.47
2018-12-29T07:29:24.562Z,4.57
2018-12-29T07:31:52.919Z,5.17
2018-12-29T07:34:21.347Z,4.70
2018-12-29T07:36:50.151Z,4.83
2018-12-29T07:39:18.489Z,4.80
2018-12-29T07:41:46.811Z,4.63
2018-12-29T07:44:15.442Z,3.93
2018-12-29T07:46:49.535Z,5.40
2018-12-29T07:49:12.091Z,5.27
2018-12-29T07:51:40.618Z,5.20
2018-12-29T07:54:08.998Z,6.10
2018-12-29T07:56:37.425Z,6.77
2018-12-29T07:59:06.015Z,6.23
2018-12-29T08:01:35.112Z,6.10
2018-12-29T08:04:03.456Z,6.23
2018-12-29T08:06:32.073Z,6.70
2018-12-29T08:09:00.585Z,6.63
2018-12-29T08:11:29.169Z,5.93
2018-12-29T08:13:57.962Z,7.20
2018-12-29T08:16:26.260Z,7.10
2018-12-29T08:18:54.571Z,6.87
2018-12-29T08:21:23.404Z,6.30
2018-12-29T08:23:51.725Z,6.20
2018-12-29T08:26:20.070Z,7.50
2018-12-29T08:28:48.842Z,7.07
2018-12-29T08:31:17.123Z,6.67
2018-12-29T08:33:45.455Z,7.37
2018-12-29T08:36:14.280Z,7.23
2018-12-29T08:38:42.600Z,7.40
2018-12-29T08:41:10.892Z,6.87
2018-12-29T08:43:39.851Z,6.60
2018-12-29T08:46:08.170Z,6.43
2018-12-29T08:48:36.785Z,6.17
2018-12-29T08:51:05.781Z,6.90
2018-12-29T08:53:34.116Z,6.17
2018-12-29T08:56:02.525Z,7.40
2018-12-29T08:58:31.220Z,6.70
2018-12-29T09:00:59.587Z,5.73
2018-12-29T09:03:28.261Z,6.20
2018-12-29T09:05:57.020Z,5.97
2018-12-29T09:08:25.574Z,5.93
2018-12-29T09:10:54.161Z,5.80
2018-12-29T09:13:23.020Z,5.67
2018-12-29T09:15:51.534Z,5.33
2018-12-29T09:18:20.176Z,6.27
2018-12-29T09:20:49.238Z,6.60
2018-12-29T09:23:17.863Z,6.63
2018-12-29T09:25:46.409Z,5.93
2018-12-29T09:28:15.436Z,6.87
2018-12-29T09:30:43.796Z,8.30
2018-12-29T09:33:12.119Z,7.20
2018-12-29T09:35:40.873Z,6.20
2018-12-29T09:38:09.415Z,7.33
2018-12-29T09:40:37.901Z,7.67
2018-12-29T09:43:06.515Z,7.37
2018-12-29T09:45:34.980Z,7.57
2018-12-29T09:48:03.316Z,7.07
2018-12-29T09:50:31.684Z,7.10
2018-12-29T09:53:00.379Z,6.63
2018-12-29T09:55:28.677Z,5.97
2018-12-29T09:57:57.351Z,5.87
2018-12-29T10:00:25.686Z,6.20
2018-12-29T10:02:54.219Z,6.33
2018-12-29T10:05:23.406Z,5.17
2018-12-29T10:07:51.843Z,5.67
2018-12-29T10:10:20.164Z,5.80
2018-12-29T10:12:48.994Z,6.07
2018-12-29T10:15:17.373Z,6.30
2018-12-29T10:17:45.703Z,7.03
2018-12-29T10:20:14.403Z,6.90
2018-12-29T10:22:44.397Z,8.27
2018-12-29T10:25:11.447Z,8.60
2018-12-29T10:27:40.340Z,8.10
2018-12-29T10:30:08.679Z,7.73
2018-12-29T10:32:38.049Z,7.67
2018-12-29T10:35:06.850Z,6.70
2018-12-29T10:37:35.365Z,6.60
2018-12-29T10:40:03.910Z,6.37
2018-12-29T10:42:32.904Z,6.00
2018-12-29T10:45:01.544Z,7.10
2018-12-29T10:47:34.435Z,7.47
2018-12-29T10:49:58.960Z,6.93
2018-12-29T10:52:27.341Z,7.40
2018-12-29T10:54:55.675Z,7.33
2018-12-29T10:57:24.599Z,7.53
2018-12-29T10:59:53.389Z,7.97
2018-12-29T11:02:22.075Z,6.80
2018-12-29T11:04:50.617Z,6.30
2018-12-29T11:07:19.221Z,6.03
2018-12-29T11:09:47.571Z,6.27
2018-12-29T11:12:16.508Z,6.53
2018-12-29T11:14:44.845Z,6.63
2018-12-29T11:17:13.572Z,6.53
2018-12-29T11:19:42.254Z,6.53
2018-12-29T11:22:10.600Z,5.17
2018-12-29T11:24:39.111Z,5.57
2018-12-29T11:27:08.075Z,5.60
2018-12-29T11:29:36.591Z,5.63
2018-12-29T11:32:05.135Z,6.50
2018-12-29T11:34:33.916Z,6.50
2018-12-29T11:37:02.281Z,6.70
2018-12-29T11:39:31.054Z,6.50
2018-12-29T11:41:59.651Z,5.90
2018-12-29T11:44:28.179Z,6.53
2018-12-29T11:46:56.781Z,6.17
2018-12-29T11:49:25.548Z,6.83
2018-12-29T11:51:53.958Z,6.10
2018-12-29T11:54:22.825Z,6.50
2018-12-29T11:56:51.482Z,6.00
2018-12-29T11:59:19.851Z,6.87
2018-12-29T12:01:48.166Z,6.70
2018-12-29T12:04:17.045Z,7.77
2018-12-29T12:06:45.728Z,7.67
2018-12-29T12:09:14.208Z,7.63
2018-12-29T12:11:42.798Z,6.37
2018-12-29T12:14:11.177Z,7.00
2018-12-29T12:16:39.715Z,7.10
2018-12-29T12:19:08.380Z,7.47
2018-12-29T12:21:36.723Z,8.50
2018-12-29T12:24:05.039Z,7.57
2018-12-29T12:26:33.831Z,7.60
2018-12-29T12:29:02.482Z,7.37
2018-12-29T12:31:30.866Z,8.07
2018-12-29T12:33:59.725Z,8.13
2018-12-29T12:36:28.361Z,8.80
2018-12-29T12:38:56.672Z,8.57
2018-12-29T12:41:25.352Z,8.23
2018-12-29T12:43:53.690Z,8.00
2018-12-29T12:46:22.060Z,8.83
2018-12-29T12:48:50.757Z,8.13
2018-12-29T12:51:19.082Z,7.90
2018-12-29T12:53:47.466Z,9.13
2018-12-29T12:56:16.216Z,8.20
2018-12-29T12:58:44.685Z,8.43
2018-12-29T13:01:13.104Z,8.30
2018-12-29T13:03:42.099Z,8.40
2018-12-29T13:06:10.476Z,7.53
2018-12-29T13:08:38.854Z,9.07
2018-12-29T13:11:08.315Z,9.40
2018-12-29T13:13:36.784Z,8.70
2018-12-29T13:16:05.404Z,8.53
2018-12-29T13:18:34.066Z,9.23
2018-12-29T13:21:03.042Z,9.17
2018-12-29T13:23:30.983Z,8.80
2018-12-29T13:26:00.877Z,10.03
2018-12-29T13:28:29.476Z,9.77
2018-12-29T13:30:57.854Z,9.17
2018-12-29T13:33:26.613Z,9.03
2018-12-29T13:35:55.107Z,9.23
2018-12-29T13:38:23.420Z,9.27
2018-12-29T13:40:52.063Z,9.70
2018-12-29T13:43:21.266Z,9.80
2018-12-29T13:45:49.743Z,8.43
2018-12-29T13:48:20.653Z,10.37
2018-12-29T13:50:46.803Z,11.03
2018-12-29T13:53:15.157Z,10.90
2018-12-29T13:55:43.872Z,11.60
2018-12-29T13:58:12.398Z,11.80
2018-12-29T14:00:41.121Z,10.70
2018-12-29T14:03:09.917Z,10.33
2018-12-29T14:05:38.295Z,9.77
2018-12-29T14:08:06.800Z,10.33
2018-12-29T14:10:35.818Z,10.07
2018-12-29T14:13:04.899Z,9.37
2018-12-29T14:15:33.518Z,8.83
2018-12-29T14:18:02.180Z,9.70
2018-12-29T14:20:30.665Z,9.50
2018-12-29T14:22:59.089Z,10.00
2018-12-29T14:25:27.629Z,11.10
2018-12-29T14:27:56.275Z,11.90
2018-12-29T14:30:24.684Z,13.23
2018-12-29T14:32:53.377Z,12.67
2018-12-29T14:35:21.725Z,10.67
2018-12-29T14:37:50.103Z,9.87
2018-12-29T14:40:18.961Z,11.77
2018-12-29T14:42:47.522Z,11.17
2018-12-29T14:45:15.987Z,10.97
2018-12-29T14:47:44.708Z,9.73
2018-12-29T14:50:13.597Z,10.80
2018-12-29T14:52:42.772Z,10.77
2018-12-29T14:55:11.241Z,10.83
2018-12-29T14:57:39.602Z,10.03
2018-12-29T15:00:08.039Z,10.03
2018-12-29T15:02:36.818Z,10.13
2018-12-29T15:05:05.410Z,10.30
2018-12-29T15:07:33.728Z,10.97
2018-12-29T15:10:02.562Z,12.13
2018-12-29T15:12:30.985Z,10.63
2018-12-29T15:14:59.899Z,10.47
2018-12-29T15:17:28.926Z,9.87
2018-12-29T15:19:57.462Z,11.77
2018-12-29T15:22:25.789Z,11.40
2018-12-29T15:24:54.530Z,11.00
2018-12-29T15:27:22.854Z,10.80
2018-12-29T15:29:51.257Z,10.80
2018-12-29T15:32:26.726Z,11.03
2018-12-29T15:34:55.625Z,10.47
2018-12-29T15:37:24.241Z,10.80
2018-12-29T15:39:53.234Z,11.13
2018-12-29T15:42:21.579Z,10.80
2018-12-29T15:44:50.122Z,10.50
2018-12-29T15:47:19.041Z,10.27
2018-12-29T15:49:47.666Z,11.37
2018-12-29T15:52:16.048Z,9.53
2018-12-29T15:54:44.568Z,11.57
2018-12-29T15:57:12.864Z,10.23
2018-12-29T15:59:41.613Z,11.87
2018-12-29T16:02:10.238Z,10.30
2018-12-29T16:04:38.562Z,9.67
2018-12-29T16:07:07.098Z,9.13
2018-12-29T16:09:35.913Z,10.87
2018-12-29T16:12:04.278Z,10.70
2018-12-29T16:14:35.506Z,9.97
2018-12-29T16:17:01.966Z,10.07
2018-12-29T16:19:30.745Z,9.63
2018-12-29T16:21:59.807Z,9.43
2018-12-29T16:24:28.251Z,8.83
2018-12-29T16:26:57.322Z,9.23
2018-12-29T16:29:25.680Z,8.47
2018-12-29T16:31:54.383Z,8.20
2018-12-29T16:34:22.975Z,9.53
2018-12-29T16:36:51.333Z,9.00
2018-12-29T16:39:20.042Z,9.17
2018-12-29T16:41:48.765Z,10.00
2018-12-29T16:44:17.122Z,9.77
2018-12-29T16:46:45.881Z,9.70
2018-12-29T16:49:14.468Z,9.03
2018-12-29T16:51:42.803Z,9.33
2018-12-29T16:54:11.625Z,10.07
2018-12-29T16:56:40.016Z,11.20
2018-12-29T16:59:08.350Z,11.07
2018-12-29T17:01:36.904Z,11.47
2018-12-29T17:04:05.579Z,11.13
2018-12-29T17:06:33.888Z,11.50
2018-12-29T17:09:02.503Z,11.17
2018-12-29T17:11:31.192Z,10.93
2018-12-29T17:13:59.565Z,12.30
2018-12-29T17:16:28.128Z,11.53
2018-12-29T17:18:56.877Z,11.70
2018-12-29T17:21:25.209Z,12.63
2018-12-29T17:23:54.000Z,13.20
2018-12-29T17:26:22.354Z,13.13
2018-12-29T17:28:50.689Z,13.87
2018-12-29T17:31:19.439Z,13.30
2018-12-29T17:33:48.031Z,12.43
2018-12-29T17:36:16.722Z,13.80
2018-12-29T17:38:45.364Z,14.97
2018-12-29T17:41:13.766Z,14.87
2018-12-29T17:43:42.117Z,13.30
2018-12-29T17:46:10.931Z,14.23
2018-12-29T17:48:39.231Z,14.03
2018-12-29T17:51:07.923Z,12.90
2018-12-29T17:53:36.833Z,13.77
2018-12-29T17:56:05.161Z,14.67
2018-12-29T17:58:33.484Z,14.63
2018-12-29T18:01:02.271Z,14.70
2018-12-29T18:03:30.616Z,14.73
2018-12-29T18:05:59.121Z,13.73
2018-12-29T18:08:28.035Z,13.37
2018-12-29T18:10:56.430Z,14.47
2018-12-29T18:13:24.778Z,12.97
2018-12-29T18:15:53.780Z,13.73
2018-12-29T18:18:22.262Z,15.03
2018-12-29T18:20:50.952Z,16.20
2018-12-29T18:23:19.670Z,13.73
2018-12-29T18:25:48.172Z,16.53
2018-12-29T18:28:16.733Z,16.33
2018-12-29T18:30:45.582Z,15.17
2018-12-29T18:33:14.055Z,15.47
2018-12-29T18:35:42.496Z,15.23
2018-12-29T18:38:11.017Z,15.00
2018-12-29T18:40:39.474Z,13.87
2018-12-29T18:43:08.124Z,16.67
2018-12-29T18:45:36.911Z,17.93
2018-12-29T18:48:05.517Z,16.83
2018-12-29T18:50:33.956Z,17.47
2018-12-29T18:53:02.513Z,17.40
2018-12-29T18:55:30.881Z,16.93
2018-12-29T18:57:59.414Z,16.70
2018-12-29T19:00:27.936Z,16.30
2018-12-29T19:02:56.390Z,17.23
2018-12-29T19:05:24.778Z,17.73
2018-12-29T19:07:53.538Z,19.07
2018-12-29T19:10:21.915Z,18.80
2018-12-29T19:12:51.680Z,18.67
2018-12-29T19:15:19.432Z,20.00
2018-12-29T19:17:47.759Z,18.20
2018-12-29T19:20:16.343Z,18.90
2018-12-29T19:22:45.180Z,17.30
2018-12-29T19:25:13.761Z,18.60
2018-12-29T19:27:42.132Z,17.90
2018-12-29T19:30:11.088Z,18.00
2018-12-29T19:32:39.705Z,18.50
2018-12-29T19:35:08.091Z,18.03
2018-12-29T19:37:36.832Z,17.83
2018-12-29T19:40:05.785Z,17.17
2018-12-29T19:42:34.354Z,19.63
2018-12-29T19:45:03.499Z,19.73
2018-12-29T19:47:31.812Z,17.77
2018-12-29T19:50:00.504Z,20.07
2018-12-29T19:52:29.405Z,18.97
2018-12-29T19:54:57.735Z,23.03
2018-12-29T19:57:26.133Z,21.10
2018-12-29T19:59:54.897Z,21.23
2018-12-29T20:02:23.285Z,19.50
2018-12-29T20:04:51.623Z,18.33
2018-12-29T20:07:20.740Z,18.60
2018-12-29T20:09:49.272Z,16.70
2018-12-29T20:12:17.660Z,18.87
2018-12-29T20:14:46.489Z,17.23
2018-12-29T20:17:14.803Z,17.77
2018-12-29T20:19:43.145Z,18.10
2018-12-29T20:22:11.949Z,18.43
2018-12-29T20:24:40.696Z,18.47
2018-12-29T20:27:09.016Z,17.30
2018-12-29T20:29:37.985Z,16.93
2018-12-29T20:32:06.523Z,18.63
2018-12-29T20:34:36.010Z,16.40
2018-12-29T20:37:03.731Z,18.77
2018-12-29T20:39:32.135Z,17.80
2018-12-29T20:42:00.508Z,19.57
2018-12-29T20:44:29.320Z,22.47
2018-12-29T20:46:57.855Z,26.17
2018-12-29T20:49:26.183Z,20.53
2018-12-29T20:51:55.223Z,22.77
2018-12-29T20:54:23.566Z,22.30
2018-12-29T20:56:51.896Z,19.03
2018-12-29T20:59:20.639Z,18.03
2018-12-29T21:01:49.163Z,17.80
2018-12-29T21:04:17.483Z,16.07
2018-12-29T21:06:45.960Z,18.10
2018-12-29T21:09:14.358Z,17.90
2018-12-29T21:11:42.694Z,17.77
2018-12-29T21:14:11.388Z,15.83
2018-12-29T21:16:39.685Z,14.77
2018-12-29T21:19:08.299Z,15.40
2018-12-29T21:21:37.290Z,14.87
2018-12-29T21:24:12.153Z,15.77
2018-12-29T21:26:34.674Z,15.63
2018-12-29T21:29:03.198Z,15.33
2018-12-29T21:31:31.582Z,15.70
2018-12-29T21:34:00.113Z,15.03
2018-12-29T21:36:28.796Z,16.97
2018-12-29T21:38:57.157Z,16.97
2018-12-29T21:41:25.594Z,20.63
2018-12-29T21:43:54.524Z,15.00
2018-12-29T21:46:22.844Z,16.50
2018-12-29T21:48:51.508Z,17.40
2018-12-29T21:51:19.964Z,16.37
2018-12-29T21:53:48.366Z,16.47
2018-12-29T21:56:16.745Z,16.93
2018-12-29T21:58:45.582Z,20.27
2018-12-29T22:01:13.975Z,15.47
2018-12-29T22:03:42.529Z,16.70
2018-12-29T22:06:11.330Z,16.60
2018-12-29T22:08:40.151Z,17.07
2018-12-29T22:11:08.738Z,18.23
2018-12-29T22:13:37.375Z,17.77
2018-12-29T22:16:05.738Z,18.37
2018-12-29T22:18:34.139Z,18.20
2018-12-29T22:21:03.122Z,16.53
2018-12-29T22:23:31.453Z,16.63
2018-12-29T22:25:59.878Z,16.60
2018-12-29T22:28:29.324Z,20.37
2018-12-29T22:30:58.011Z,16.87
2018-12-29T22:33:26.653Z,14.63
2018-12-29T22:35:55.380Z,16.23
2018-12-29T22:38:23.728Z,14.90
2018-12-29T22:40:52.165Z,13.97
2018-12-29T22:43:20.817Z,18.30
2018-12-29T22:45:49.458Z,16.57
2018-12-29T22:48:17.790Z,13.87
2018-12-29T22:50:46.562Z,14.70
2018-12-29T22:53:14.887Z,14.53
2018-12-29T22:55:43.260Z,14.70
2018-12-29T22:58:12.312Z,15.60
2018-12-29T23:00:41.578Z,15.83
2018-12-29T23:03:10.294Z,15.03
2018-12-29T23:05:39.286Z,17.03
2018-12-29T23:08:07.969Z,16.10
2018-12-29T23:10:36.529Z,15.83
2018-12-29T23:13:05.344Z,16.43
2018-12-29T23:15:33.723Z,15.93
2018-12-29T23:18:02.128Z,17.73
2018-12-29T23:20:31.088Z,16.23
2018-12-29T23:22:59.577Z,17.07
2018-12-29T23:25:28.250Z,16.53
2018-12-29T23:27:57.311Z,14.13
2018-12-29T23:30:26.094Z,14.00
2018-12-29T23:32:54.888Z,13.70
2018-12-29T23:35:23.533Z,13.23
2018-12-29T23:37:52.063Z,13.23
2018-12-29T23:40:20.501Z,15.17
2018-12-29T23:42:49.253Z,15.70
2018-12-29T23:45:17.582Z,15.67
2018-12-29T23:47:46.621Z,14.73
2018-12-29T23:50:15.473Z,15.03
2018-12-29T23:52:43.817Z,15.60
2018-12-29T23:55:12.466Z,13.47
2018-12-29T23:57:41.218Z,12.87
